sensor_id;sensor_type;location;lat;lon;timestamp;pressure;altitude;pressure_sealevel;temperature;humidity
73952;BME280;62304;47.662;18.324;2023-03-24T00:01:22;99937.53;;;13.60;54.80
73952;BME280;62304;47.662;18.324;2023-03-24T00:04:25;99941.50;;;13.59;54.95
73952;BME280;62304;47.662;18.324;2023-03-24T00:07:29;99928.78;;;13.58;55.06
73952;BME280;62304;47.662;18.324;2023-03-24T00:10:32;99930.38;;;13.55;55.18
73952;BME280;62304;47.662;18.324;2023-03-24T00:13:37;99918.44;;;13.62;54.98
73952;BME280;62304;47.662;18.324;2023-03-24T00:16:41;99909.66;;;13.63;55.00
73952;BME280;62304;47.662;18.324;2023-03-24T00:19:44;99908.87;;;13.59;55.21
73952;BME280;62304;47.662;18.324;2023-03-24T00:22:50;99914.06;;;13.61;55.17
73952;BME280;62304;47.662;18.324;2023-03-24T00:26:07;99914.06;;;13.57;55.16
73952;BME280;62304;47.662;18.324;2023-03-24T00:29:10;99910.47;;;13.60;55.04
73952;BME280;62304;47.662;18.324;2023-03-24T00:32:14;99904.06;;;13.70;54.70
73952;BME280;62304;47.662;18.324;2023-03-24T00:35:18;99904.47;;;13.65;54.75
73952;BME280;62304;47.662;18.324;2023-03-24T00:38:20;99910.44;;;13.71;54.72
73952;BME280;62304;47.662;18.324;2023-03-24T00:41:25;99904.06;;;13.70;54.63
73952;BME280;62304;47.662;18.324;2023-03-24T00:44:28;99906.84;;;13.70;54.55
73952;BME280;62304;47.662;18.324;2023-03-24T00:47:33;99895.31;;;13.68;54.54
73952;BME280;62304;47.662;18.324;2023-03-24T00:50:43;99896.09;;;13.72;54.39
73952;BME280;62304;47.662;18.324;2023-03-24T00:53:47;99888.94;;;13.68;54.46
73952;BME280;62304;47.662;18.324;2023-03-24T00:56:50;99891.75;;;13.64;54.59
73952;BME280;62304;47.662;18.324;2023-03-24T00:59:57;99886.56;;;13.59;54.77
73952;BME280;62304;47.662;18.324;2023-03-24T01:03:02;99887.37;;;13.56;54.82
73952;BME280;62304;47.662;18.324;2023-03-24T01:06:07;99888.97;;;13.61;54.73
73952;BME280;62304;47.662;18.324;2023-03-24T01:09:10;99879.41;;;13.65;54.57
73952;BME280;62304;47.662;18.324;2023-03-24T01:12:14;99884.19;;;13.68;54.43
73952;BME280;62304;47.662;18.324;2023-03-24T01:15:21;99876.19;;;13.70;54.43
73952;BME280;62304;47.662;18.324;2023-03-24T01:18:26;99868.62;;;13.67;54.35
73952;BME280;62304;47.662;18.324;2023-03-24T01:21:29;99871.81;;;13.62;54.47
73952;BME280;62304;47.662;18.324;2023-03-24T01:24:33;99861.88;;;13.65;54.36
73952;BME280;62304;47.662;18.324;2023-03-24T01:27:37;99864.25;;;13.66;54.35
73952;BME280;62304;47.662;18.324;2023-03-24T01:30:40;99863.06;;;13.64;54.32
73952;BME280;62304;47.662;18.324;2023-03-24T01:33:43;99862.28;;;13.63;54.38
73952;BME280;62304;47.662;18.324;2023-03-24T01:36:46;99859.91;;;13.58;54.44
73952;BME280;62304;47.662;18.324;2023-03-24T01:39:49;99859.50;;;13.56;54.53
73952;BME280;62304;47.662;18.324;2023-03-24T01:42:53;99852.38;;;13.48;54.67
73952;BME280;62304;47.662;18.324;2023-03-24T01:46:17;99860.31;;;13.53;54.55
73952;BME280;62304;47.662;18.324;2023-03-24T01:49:23;99860.31;;;13.53;54.62
73952;BME280;62304;47.662;18.324;2023-03-24T01:52:30;99855.53;;;13.54;54.61
73952;BME280;62304;47.662;18.324;2023-03-24T01:55:33;99862.75;;;13.20;55.79
73952;BME280;62304;47.662;18.324;2023-03-24T01:58:39;99850.44;;;12.96;57.23
73952;BME280;62304;47.662;18.324;2023-03-24T02:01:44;99846.81;;;12.78;57.50
73952;BME280;62304;47.662;18.324;2023-03-24T02:04:54;99842.84;;;12.72;57.64
73952;BME280;62304;47.662;18.324;2023-03-24T02:11:21;99844.44;;;12.59;58.39
73952;BME280;62304;47.662;18.324;2023-03-24T02:14:25;99831.28;;;12.46;59.35
73952;BME280;62304;47.662;18.324;2023-03-24T02:52:06;99823.53;;;11.76;61.02
73952;BME280;62304;47.662;18.324;2023-03-24T02:55:21;99818.00;;;11.80;61.92
73952;BME280;62304;47.662;18.324;2023-03-24T02:59:02;99816.94;;;11.34;63.87
73952;BME280;62304;47.662;18.324;2023-03-24T03:02:22;99816.53;;;11.35;63.68
73952;BME280;62304;47.662;18.324;2023-03-24T03:05:38;99804.50;;;11.10;63.99
73952;BME280;62304;47.662;18.324;2023-03-24T03:08:44;99816.34;;;11.04;64.69
73952;BME280;62304;47.662;18.324;2023-03-24T03:11:51;99817.63;;;11.17;63.25
73952;BME280;62304;47.662;18.324;2023-03-24T03:15:02;99808.88;;;11.15;64.03
73952;BME280;62304;47.662;18.324;2023-03-24T03:18:18;99824.81;;;11.21;63.56
73952;BME280;62304;47.662;18.324;2023-03-24T03:21:25;99819.63;;;11.20;63.86
73952;BME280;62304;47.662;18.324;2023-03-24T03:24:34;99813.41;;;10.83;65.26
73952;BME280;62304;47.662;18.324;2023-03-24T03:27:40;99811.06;;;10.85;65.28
73952;BME280;62304;47.662;18.324;2023-03-24T03:30:52;99808.25;;;10.81;65.23
73952;BME280;62304;47.662;18.324;2023-03-24T03:40:34;99800.97;;;10.23;68.54
73952;BME280;62304;47.662;18.324;2023-03-24T03:43:39;99800.09;;;10.12;68.96
73952;BME280;62304;47.662;18.324;2023-03-24T03:46:44;99808.50;;;10.19;67.85
73952;BME280;62304;47.662;18.324;2023-03-24T03:49:49;99797.72;;;10.10;67.97
73952;BME280;62304;47.662;18.324;2023-03-24T03:52:52;99801.84;;;10.30;66.98
73952;BME280;62304;47.662;18.324;2023-03-24T03:55:56;99804.94;;;10.22;67.76
73952;BME280;62304;47.662;18.324;2023-03-24T03:58:59;99803.03;;;10.29;67.45
73952;BME280;62304;47.662;18.324;2023-03-24T04:05:35;99805.00;;;10.29;67.08
73952;BME280;62304;47.662;18.324;2023-03-24T04:08:47;99811.63;;;10.17;67.17
73952;BME280;62304;47.662;18.324;2023-03-24T04:22:26;99805.28;;;9.84;69.18
73952;BME280;62304;47.662;18.324;2023-03-24T04:26:42;99811.00;;;9.98;68.34
73952;BME280;62304;47.662;18.324;2023-03-24T04:29:27;99807.38;;;10.27;67.72
73952;BME280;62304;47.662;18.324;2023-03-24T04:35:48;99808.31;;;10.41;67.51
73952;BME280;62304;47.662;18.324;2023-03-24T04:38:54;99813.81;;;10.38;67.06
73952;BME280;62304;47.662;18.324;2023-03-24T04:42:02;99802.22;;;10.29;67.26
73952;BME280;62304;47.662;18.324;2023-03-24T04:45:08;99800.59;;;10.21;67.60
73952;BME280;62304;47.662;18.324;2023-03-24T04:48:13;99798.34;;;10.00;69.72
73952;BME280;62304;47.662;18.324;2023-03-24T04:51:18;99810.00;;;10.13;69.04
73952;BME280;62304;47.662;18.324;2023-03-24T04:54:22;99807.75;;;10.25;68.64
73952;BME280;62304;47.662;18.324;2023-03-24T04:57:26;99814.47;;;10.24;69.22
73952;BME280;62304;47.662;18.324;2023-03-24T05:00:29;99816.84;;;10.22;68.69
73952;BME280;62304;47.662;18.324;2023-03-24T05:03:33;99818.25;;;10.09;69.38
73952;BME280;62304;47.662;18.324;2023-03-24T05:06:39;99822.53;;;9.70;71.95
73952;BME280;62304;47.662;18.324;2023-03-24T05:09:42;99814.62;;;9.69;71.75
73952;BME280;62304;47.662;18.324;2023-03-24T05:12:45;99818.69;;;9.78;71.65
73952;BME280;62304;47.662;18.324;2023-03-24T05:15:52;99821.09;;;9.80;71.22
73952;BME280;62304;47.662;18.324;2023-03-24T05:18:56;99820.78;;;9.55;72.53
73952;BME280;62304;47.662;18.324;2023-03-24T05:22:00;99832.16;;;9.50;72.79
73952;BME280;62304;47.662;18.324;2023-03-24T05:25:03;99822.12;;;9.68;71.70
73952;BME280;62304;47.662;18.324;2023-03-24T05:28:07;99832.06;;;9.73;72.33
73952;BME280;62304;47.662;18.324;2023-03-24T05:31:10;99832.25;;;9.87;72.59
73952;BME280;62304;47.662;18.324;2023-03-24T05:34:13;99841.09;;;9.99;71.28
73952;BME280;62304;47.662;18.324;2023-03-24T05:37:17;99841.09;;;9.99;72.25
73952;BME280;62304;47.662;18.324;2023-03-24T05:40:21;99831.44;;;10.19;71.13
73952;BME280;62304;47.662;18.324;2023-03-24T05:43:25;99835.13;;;10.30;70.49
73952;BME280;62304;47.662;18.324;2023-03-24T05:46:29;99844.47;;;10.52;70.39
73952;BME280;62304;47.662;18.324;2023-03-24T05:49:33;99843.03;;;10.72;69.65
73952;BME280;62304;47.662;18.324;2023-03-24T05:52:37;99844.41;;;10.92;68.79
73952;BME280;62304;47.662;18.324;2023-03-24T05:55:41;99850.50;;;11.11;68.35
73952;BME280;62304;47.662;18.324;2023-03-24T05:58:46;99839.56;;;11.36;67.42
73952;BME280;62304;47.662;18.324;2023-03-24T06:01:49;99842.41;;;11.50;67.09
73952;BME280;62304;47.662;18.324;2023-03-24T06:04:52;99840.16;;;11.69;66.37
73952;BME280;62304;47.662;18.324;2023-03-24T06:07:57;99845.81;;;11.87;65.89
73952;BME280;62304;47.662;18.324;2023-03-24T06:11:03;99839.13;;;12.05;65.04
73952;BME280;62304;47.662;18.324;2023-03-24T06:14:07;99841.53;;;12.10;65.01
73952;BME280;62304;47.662;18.324;2023-03-24T06:17:11;99828.47;;;12.35;64.50
73952;BME280;62304;47.662;18.324;2023-03-24T06:20:17;99841.22;;;12.57;64.40
73952;BME280;62304;47.662;18.324;2023-03-24T06:23:22;99839.28;;;12.75;64.52
73952;BME280;62304;47.662;18.324;2023-03-24T06:26:28;99826.56;;;12.88;63.23
73952;BME280;62304;47.662;18.324;2023-03-24T06:29:32;99821.03;;;13.02;62.17
73952;BME280;62304;47.662;18.324;2023-03-24T06:32:35;99831.72;;;13.21;62.98
73952;BME280;62304;47.662;18.324;2023-03-24T06:35:40;99829.69;;;13.43;62.01
73952;BME280;62304;47.662;18.324;2023-03-24T06:38:44;99832.44;;;13.60;61.07
73952;BME280;62304;47.662;18.324;2023-03-24T06:41:49;99828.78;;;13.81;60.75
73952;BME280;62304;47.662;18.324;2023-03-24T06:44:52;99829.16;;;13.90;59.18
73952;BME280;62304;47.662;18.324;2023-03-24T06:47:56;99821.09;;;14.09;57.73
73952;BME280;62304;47.662;18.324;2023-03-24T06:50:59;99812.16;;;14.42;57.27
73952;BME280;62304;47.662;18.324;2023-03-24T06:54:05;99810.25;;;14.83;55.69
73952;BME280;62304;47.662;18.324;2023-03-24T06:57:08;99806.75;;;15.16;55.68
73952;BME280;62304;47.662;18.324;2023-03-24T07:00:14;99810.00;;;15.55;54.87
73952;BME280;62304;47.662;18.324;2023-03-24T07:03:19;99804.78;;;16.47;52.85
73952;BME280;62304;47.662;18.324;2023-03-24T07:06:25;99796.34;;;16.77;51.86
73952;BME280;62304;47.662;18.324;2023-03-24T07:09:28;99799.44;;;16.83;50.34
73952;BME280;62304;47.662;18.324;2023-03-24T07:12:32;99792.72;;;16.77;49.54
73952;BME280;62304;47.662;18.324;2023-03-24T07:15:34;99794.56;;;16.64;50.36
73952;BME280;62304;47.662;18.324;2023-03-24T07:18:38;99796.25;;;16.28;49.90
73952;BME280;62304;47.662;18.324;2023-03-24T07:21:41;99795.16;;;16.22;49.70
73952;BME280;62304;47.662;18.324;2023-03-24T07:24:44;99794.09;;;16.12;49.60
73952;BME280;62304;47.662;18.324;2023-03-24T07:27:53;99800.00;;;16.18;49.54
73952;BME280;62304;47.662;18.324;2023-03-24T07:31:01;99785.06;;;16.58;48.85
73952;BME280;62304;47.662;18.324;2023-03-24T07:34:05;99786.34;;;17.22;47.02
73952;BME280;62304;47.662;18.324;2023-03-24T07:37:09;99782.81;;;17.41;46.67
73952;BME280;62304;47.662;18.324;2023-03-24T07:40:13;99785.75;;;17.54;45.42
73952;BME280;62304;47.662;18.324;2023-03-24T07:43:18;99786.56;;;17.54;45.61
73952;BME280;62304;47.662;18.324;2023-03-24T07:46:22;99781.00;;;18.09;44.12
73952;BME280;62304;47.662;18.324;2023-03-24T07:49:25;99788.09;;;18.33;43.57
73952;BME280;62304;47.662;18.324;2023-03-24T07:52:32;99784.88;;;18.15;43.39
73952;BME280;62304;47.662;18.324;2023-03-24T07:55:36;99782.03;;;17.99;43.97
73952;BME280;62304;47.662;18.324;2023-03-24T07:58:40;99777.19;;;17.80;44.06
73952;BME280;62304;47.662;18.324;2023-03-24T08:01:44;99771.56;;;17.64;44.42
73952;BME280;62304;47.662;18.324;2023-03-24T08:04:50;99771.69;;;18.12;43.52
73952;BME280;62304;47.662;18.324;2023-03-24T08:07:56;99773.84;;;18.24;43.63
73952;BME280;62304;47.662;18.324;2023-03-24T08:11:00;99771.00;;;19.40;41.62
73952;BME280;62304;47.662;18.324;2023-03-24T08:14:03;99755.59;;;19.73;40.55
73952;BME280;62304;47.662;18.324;2023-03-24T08:17:06;99750.34;;;19.58;40.71
73952;BME280;62304;47.662;18.324;2023-03-24T08:20:11;99747.72;;;19.23;40.81
73952;BME280;62304;47.662;18.324;2023-03-24T08:23:16;99724.53;;;19.35;41.08
73952;BME280;62304;47.662;18.324;2023-03-24T08:26:19;99722.78;;;19.25;41.13
73952;BME280;62304;47.662;18.324;2023-03-24T08:29:22;99730.44;;;19.53;41.18
73952;BME280;62304;47.662;18.324;2023-03-24T08:32:25;99723.56;;;19.09;41.39
73952;BME280;62304;47.662;18.324;2023-03-24T08:35:33;99726.47;;;19.79;39.58
73952;BME280;62304;47.662;18.324;2023-03-24T08:38:40;99722.81;;;20.44;38.41
73952;BME280;62304;47.662;18.324;2023-03-24T08:41:43;99734.16;;;20.66;38.07
73952;BME280;62304;47.662;18.324;2023-03-24T08:44:46;99719.69;;;21.35;37.07
73952;BME280;62304;47.662;18.324;2023-03-24T08:47:50;99718.59;;;21.54;36.26
73952;BME280;62304;47.662;18.324;2023-03-24T08:50:54;99714.53;;;21.55;35.70
73952;BME280;62304;47.662;18.324;2023-03-24T08:53:57;99721.34;;;20.52;38.20
73952;BME280;62304;47.662;18.324;2023-03-24T08:57:01;99713.34;;;20.13;38.46
73952;BME280;62304;47.662;18.324;2023-03-24T09:00:04;99714.13;;;20.39;37.85
73952;BME280;62304;47.662;18.324;2023-03-24T09:03:18;99711.41;;;20.73;37.59
73952;BME280;62304;47.662;18.324;2023-03-24T09:06:24;99718.44;;;20.31;37.90
73952;BME280;62304;47.662;18.324;2023-03-24T09:09:29;99714.81;;;19.64;39.18
73952;BME280;62304;47.662;18.324;2023-03-24T09:12:33;99712.25;;;19.42;40.00
73952;BME280;62304;47.662;18.324;2023-03-24T09:15:36;99711.37;;;19.45;40.32
73952;BME280;62304;47.662;18.324;2023-03-24T09:18:39;99709.03;;;19.96;39.02
73952;BME280;62304;47.662;18.324;2023-03-24T09:21:44;99702.00;;;19.76;39.58
73952;BME280;62304;47.662;18.324;2023-03-24T09:24:47;99695.56;;;20.17;38.99
73952;BME280;62304;47.662;18.324;2023-03-24T09:27:50;99691.56;;;20.64;38.23
73952;BME280;62304;47.662;18.324;2023-03-24T09:30:58;99699.59;;;20.40;38.25
73952;BME280;62304;47.662;18.324;2023-03-24T09:34:02;99690.50;;;20.83;37.85
73952;BME280;62304;47.662;18.324;2023-03-24T09:37:06;99664.28;;;21.07;37.44
73952;BME280;62304;47.662;18.324;2023-03-24T09:40:18;99665.09;;;21.94;35.96
73952;BME280;62304;47.662;18.324;2023-03-24T09:43:29;99662.03;;;22.10;35.09
73952;BME280;62304;47.662;18.324;2023-03-24T09:46:38;99672.16;;;21.68;36.66
73952;BME280;62304;47.662;18.324;2023-03-24T09:49:45;99664.97;;;21.76;35.74
73952;BME280;62304;47.662;18.324;2023-03-24T09:52:53;99661.78;;;22.35;34.38
73952;BME280;62304;47.662;18.324;2023-03-24T09:56:02;99661.47;;;22.33;34.81
73952;BME280;62304;47.662;18.324;2023-03-24T09:59:20;99656.97;;;21.53;36.02
73952;BME280;62304;47.662;18.324;2023-03-24T10:02:29;99659.38;;;22.64;34.85
73952;BME280;62304;47.662;18.324;2023-03-24T10:05:42;99657.06;;;22.80;33.93
73952;BME280;62304;47.662;18.324;2023-03-24T10:09:28;99655.16;;;22.77;34.37
73952;BME280;62304;47.662;18.324;2023-03-24T10:12:39;99653.16;;;22.87;34.11
73952;BME280;62304;47.662;18.324;2023-03-24T10:15:51;99643.72;;;23.35;33.43
73952;BME280;62304;47.662;18.324;2023-03-24T10:19:01;99641.22;;;23.10;33.53
73952;BME280;62304;47.662;18.324;2023-03-24T10:22:22;99651.34;;;22.53;33.69
73952;BME280;62304;47.662;18.324;2023-03-24T10:25:53;99642.78;;;22.93;33.60
73952;BME280;62304;47.662;18.324;2023-03-24T10:32:19;99646.88;;;23.28;32.87
73952;BME280;62304;47.662;18.324;2023-03-24T10:35:35;99651.28;;;23.20;33.02
73952;BME280;62304;47.662;18.324;2023-03-24T10:38:40;99648.88;;;22.82;33.50
73952;BME280;62304;47.662;18.324;2023-03-24T10:41:43;99655.97;;;22.87;33.63
73952;BME280;62304;47.662;18.324;2023-03-24T10:44:48;99651.59;;;23.40;33.17
73952;BME280;62304;47.662;18.324;2023-03-24T10:47:53;99651.69;;;23.72;32.40
73952;BME280;62304;47.662;18.324;2023-03-24T10:50:59;99640.84;;;23.62;32.27
73952;BME280;62304;47.662;18.324;2023-03-24T10:54:15;99637.56;;;24.14;31.37
73952;BME280;62304;47.662;18.324;2023-03-24T10:57:19;99641.53;;;23.39;32.02
73952;BME280;62304;47.662;18.324;2023-03-24T11:00:24;99649.41;;;23.17;32.67
73952;BME280;62304;47.662;18.324;2023-03-24T11:03:35;99639.47;;;23.12;32.58
73952;BME280;62304;47.662;18.324;2023-03-24T11:06:53;99629.72;;;24.09;31.09
73952;BME280;62304;47.662;18.324;2023-03-24T11:13:32;99618.31;;;25.50;29.72
73952;BME280;62304;47.662;18.324;2023-03-24T11:16:37;99620.78;;;25.86;28.58
73952;BME280;62304;47.662;18.324;2023-03-24T11:19:51;99614.09;;;24.93;29.80
73952;BME280;62304;47.662;18.324;2023-03-24T11:26:32;99598.19;;;26.26;27.74
73952;BME280;62304;47.662;18.324;2023-03-24T11:29:38;99586.78;;;25.77;27.81
73952;BME280;62304;47.662;18.324;2023-03-24T11:32:45;99592.81;;;24.74;29.75
73952;BME280;62304;47.662;18.324;2023-03-24T11:35:50;99586.72;;;24.43;29.73
73952;BME280;62304;47.662;18.324;2023-03-24T11:39:28;99582.97;;;24.37;30.13
73952;BME280;62304;47.662;18.324;2023-03-24T11:42:31;99580.63;;;24.82;30.08
73952;BME280;62304;47.662;18.324;2023-03-24T11:45:39;99569.75;;;24.34;29.97
73952;BME280;62304;47.662;18.324;2023-03-24T11:48:45;99570.59;;;24.25;30.44
73952;BME280;62304;47.662;18.324;2023-03-24T11:51:53;99560.78;;;24.59;30.37
73952;BME280;62304;47.662;18.324;2023-03-24T11:54:57;99539.53;;;24.92;29.06
73952;BME280;62304;47.662;18.324;2023-03-24T11:58:07;99549.31;;;25.29;28.56
73952;BME280;62304;47.662;18.324;2023-03-24T12:15:12;99525.53;;;24.89;30.13
73952;BME280;62304;47.662;18.324;2023-03-24T12:25:31;99515.41;;;24.12;31.19
73952;BME280;62304;47.662;18.324;2023-03-24T12:42:10;99488.50;;;25.21;28.92
73952;BME280;62304;47.662;18.324;2023-03-24T12:45:25;99494.53;;;25.00;28.80
73952;BME280;62304;47.662;18.324;2023-03-24T12:55:20;99494.06;;;24.25;29.67
73952;BME280;62304;47.662;18.324;2023-03-24T12:58:58;99489.19;;;24.26;30.02
73952;BME280;62304;47.662;18.324;2023-03-24T13:05:34;99472.75;;;24.30;30.14
73952;BME280;62304;47.662;18.324;2023-03-24T13:08:41;99460.53;;;24.24;30.41
73952;BME280;62304;47.662;18.324;2023-03-24T13:11:56;99460.84;;;24.26;30.23
73952;BME280;62304;47.662;18.324;2023-03-24T13:18:35;99458.34;;;25.24;29.18
73952;BME280;62304;47.662;18.324;2023-03-24T13:21:38;99457.38;;;24.98;29.32
73952;BME280;62304;47.662;18.324;2023-03-24T13:24:44;99457.25;;;24.78;29.37
73952;BME280;62304;47.662;18.324;2023-03-24T13:27:50;99459.28;;;24.63;28.80
73952;BME280;62304;47.662;18.324;2023-03-24T13:30:58;99446.47;;;24.29;29.39
73952;BME280;62304;47.662;18.324;2023-03-24T13:34:05;99456.22;;;24.14;30.59
73952;BME280;62304;47.662;18.324;2023-03-24T13:37:31;99444.56;;;23.88;30.34
73952;BME280;62304;47.662;18.324;2023-03-24T13:40:38;99442.66;;;23.62;30.85
73952;BME280;62304;47.662;18.324;2023-03-24T13:43:51;99440.38;;;23.75;30.37
73952;BME280;62304;47.662;18.324;2023-03-24T13:47:13;99444.94;;;23.49;30.78
73952;BME280;62304;47.662;18.324;2023-03-24T13:50:17;99437.00;;;23.62;30.67
73952;BME280;62304;47.662;18.324;2023-03-24T13:57:07;99429.09;;;24.36;30.17
73952;BME280;62304;47.662;18.324;2023-03-24T14:00:25;99428.72;;;24.43;30.13
73952;BME280;62304;47.662;18.324;2023-03-24T14:03:38;99420.38;;;24.25;30.17
73952;BME280;62304;47.662;18.324;2023-03-24T14:06:58;99417.81;;;23.89;30.76
73952;BME280;62304;47.662;18.324;2023-03-24T14:13:35;99409.28;;;23.33;31.80
73952;BME280;62304;47.662;18.324;2023-03-24T14:17:26;99405.84;;;23.62;31.56
73952;BME280;62304;47.662;18.324;2023-03-24T14:20:35;99404.75;;;23.59;31.32
73952;BME280;62304;47.662;18.324;2023-03-24T14:23:46;99399.66;;;23.49;31.43
73952;BME280;62304;47.662;18.324;2023-03-24T14:26:54;99411.03;;;23.31;31.92
73952;BME280;62304;47.662;18.324;2023-03-24T14:30:00;99412.19;;;23.15;32.12
73952;BME280;62304;47.662;18.324;2023-03-24T14:33:04;99409.91;;;22.96;32.49
73952;BME280;62304;47.662;18.324;2023-03-24T14:36:08;99415.25;;;22.94;32.70
73952;BME280;62304;47.662;18.324;2023-03-24T14:55:33;99392.22;;;23.19;35.75
73952;BME280;62304;47.662;18.324;2023-03-24T14:58:39;99396.47;;;23.14;35.66
73952;BME280;62304;47.662;18.324;2023-03-24T15:01:46;99396.09;;;22.98;35.99
73952;BME280;62304;47.662;18.324;2023-03-24T15:08:22;99393.66;;;23.05;36.14
73952;BME280;62304;47.662;18.324;2023-03-24T15:11:45;99392.69;;;22.76;36.14
73952;BME280;62304;47.662;18.324;2023-03-24T15:14:49;99387.69;;;22.71;36.38
73952;BME280;62304;47.662;18.324;2023-03-24T15:17:52;99382.31;;;22.73;36.51
73952;BME280;62304;47.662;18.324;2023-03-24T15:20:56;99389.19;;;22.81;36.46
73952;BME280;62304;47.662;18.324;2023-03-24T15:23:59;99388.59;;;22.77;37.36
73952;BME280;62304;47.662;18.324;2023-03-24T15:27:16;99383.25;;;22.70;37.17
73952;BME280;62304;47.662;18.324;2023-03-24T15:30:20;99377.78;;;22.39;38.08
73952;BME280;62304;47.662;18.324;2023-03-24T15:33:24;99384.56;;;22.24;37.99
73952;BME280;62304;47.662;18.324;2023-03-24T15:36:33;99378.78;;;21.91;38.88
73952;BME280;62304;47.662;18.324;2023-03-24T15:39:38;99375.31;;;21.78;38.94
73952;BME280;62304;47.662;18.324;2023-03-24T15:42:43;99369.31;;;21.58;39.71
73952;BME280;62304;47.662;18.324;2023-03-24T15:45:54;99373.50;;;21.45;39.73
73952;BME280;62304;47.662;18.324;2023-03-24T15:49:34;99373.31;;;21.30;39.84
73952;BME280;62304;47.662;18.324;2023-03-24T15:52:38;99378.59;;;21.19;40.08
73952;BME280;62304;47.662;18.324;2023-03-24T15:55:42;99374.03;;;21.13;40.29
73952;BME280;62304;47.662;18.324;2023-03-24T15:58:53;99371.97;;;21.04;40.02
73952;BME280;62304;47.662;18.324;2023-03-24T16:01:57;99370.19;;;20.98;40.40
73952;BME280;62304;47.662;18.324;2023-03-24T16:05:09;99378.81;;;20.94;40.76
73952;BME280;62304;47.662;18.324;2023-03-24T16:08:35;99373.31;;;20.91;40.94
73952;BME280;62304;47.662;18.324;2023-03-24T16:11:43;99372.25;;;20.76;41.51
73952;BME280;62304;47.662;18.324;2023-03-24T16:14:46;99366.41;;;20.61;41.71
73952;BME280;62304;47.662;18.324;2023-03-24T16:17:50;99366.69;;;20.54;42.13
73952;BME280;62304;47.662;18.324;2023-03-24T16:20:53;99369.63;;;20.51;42.18
73952;BME280;62304;47.662;18.324;2023-03-24T16:23:58;99364.31;;;20.53;41.71
73952;BME280;62304;47.662;18.324;2023-03-24T16:27:02;99370.84;;;20.50;41.83
73952;BME280;62304;47.662;18.324;2023-03-24T16:30:16;99365.38;;;20.46;41.80
73952;BME280;62304;47.662;18.324;2023-03-24T16:33:21;99371.47;;;20.45;42.01
73952;BME280;62304;47.662;18.324;2023-03-24T16:36:25;99376.31;;;20.44;41.83
73952;BME280;62304;47.662;18.324;2023-03-24T16:39:29;99377.88;;;20.45;41.78
73952;BME280;62304;47.662;18.324;2023-03-24T16:42:33;99367.34;;;20.37;42.01
73952;BME280;62304;47.662;18.324;2023-03-24T16:45:36;99373.56;;;20.32;42.26
73952;BME280;62304;47.662;18.324;2023-03-24T16:48:39;99375.72;;;20.28;42.54
73952;BME280;62304;47.662;18.324;2023-03-24T16:51:43;99371.06;;;20.12;43.43
73952;BME280;62304;47.662;18.324;2023-03-24T16:54:47;99363.56;;;20.10;43.72
73952;BME280;62304;47.662;18.324;2023-03-24T16:57:53;99365.16;;;19.98;44.05
73952;BME280;62304;47.662;18.324;2023-03-24T17:00:56;99364.56;;;19.82;44.56
73952;BME280;62304;47.662;18.324;2023-03-24T17:04:01;99369.28;;;19.72;45.19
73952;BME280;62304;47.662;18.324;2023-03-24T17:07:05;99367.31;;;19.60;45.66
73952;BME280;62304;47.662;18.324;2023-03-24T17:10:08;99379.47;;;19.57;46.18
73952;BME280;62304;47.662;18.324;2023-03-24T17:13:30;99378.59;;;19.48;46.21
73952;BME280;62304;47.662;18.324;2023-03-24T17:16:35;99369.84;;;19.33;47.06
73952;BME280;62304;47.662;18.324;2023-03-24T17:19:40;99371.44;;;19.22;47.38
73952;BME280;62304;47.662;18.324;2023-03-24T17:22:46;99374.22;;;19.09;47.90
73952;BME280;62304;47.662;18.324;2023-03-24T17:25:50;99370.41;;;19.03;47.90
73952;BME280;62304;47.662;18.324;2023-03-24T17:28:55;99370.75;;;18.92;47.63
73952;BME280;62304;47.662;18.324;2023-03-24T17:31:59;99373.56;;;18.80;48.89
73952;BME280;62304;47.662;18.324;2023-03-24T17:35:03;99377.38;;;18.74;49.56
73952;BME280;62304;47.662;18.324;2023-03-24T17:38:09;99375.13;;;18.69;49.44
73952;BME280;62304;47.662;18.324;2023-03-24T17:41:15;99380.81;;;18.53;50.84
73952;BME280;62304;47.662;18.324;2023-03-24T17:44:19;99369.37;;;18.60;50.40
73952;BME280;62304;47.662;18.324;2023-03-24T17:47:24;99378.66;;;18.44;50.54
73952;BME280;62304;47.662;18.324;2023-03-24T17:50:30;99376.78;;;18.54;50.55
73952;BME280;62304;47.662;18.324;2023-03-24T17:53:34;99376.66;;;18.57;50.62
73952;BME280;62304;47.662;18.324;2023-03-24T17:56:40;99380.62;;;18.72;50.27
73952;BME280;62304;47.662;18.324;2023-03-24T17:59:44;99379.06;;;18.71;50.31
73952;BME280;62304;47.662;18.324;2023-03-24T18:02:50;99389.97;;;18.69;50.47
73952;BME280;62304;47.662;18.324;2023-03-24T18:06:10;99385.13;;;18.70;50.47
73952;BME280;62304;47.662;18.324;2023-03-24T18:09:15;99388.69;;;18.58;50.96
73952;BME280;62304;47.662;18.324;2023-03-24T18:12:20;99394.16;;;18.36;52.16
73952;BME280;62304;47.662;18.324;2023-03-24T18:15:25;99400.03;;;18.26;52.56
73952;BME280;62304;47.662;18.324;2023-03-24T18:18:29;99403.28;;;18.24;52.87
73952;BME280;62304;47.662;18.324;2023-03-24T18:21:33;99410.25;;;18.20;52.80
73952;BME280;62304;47.662;18.324;2023-03-24T18:24:36;99412.72;;;18.30;52.43
73952;BME280;62304;47.662;18.324;2023-03-24T18:27:41;99416.25;;;18.34;51.96
73952;BME280;62304;47.662;18.324;2023-03-24T18:30:45;99414.59;;;18.37;51.85
73952;BME280;62304;47.662;18.324;2023-03-24T18:33:51;99413.63;;;18.27;52.43
73952;BME280;62304;47.662;18.324;2023-03-24T18:36:57;99414.91;;;18.10;53.24
73952;BME280;62304;47.662;18.324;2023-03-24T18:40:02;99410.09;;;18.11;53.50
73952;BME280;62304;47.662;18.324;2023-03-24T18:43:10;99408.47;;;18.26;52.74
73952;BME280;62304;47.662;18.324;2023-03-24T18:46:14;99412.16;;;18.23;53.20